createdAt,value
2023-02-06T00:02:25.232Z,97.40
2023-02-06T00:12:24.586Z,97.40
2023-02-06T00:22:23.322Z,97.50
2023-02-06T00:32:22.202Z,97.40
2023-02-06T00:42:21.230Z,97.40
2023-02-06T00:52:20.267Z,97.40
2023-02-06T01:02:19.294Z,97.40
2023-02-06T01:12:18.153Z,97.40
2023-02-06T01:22:18.080Z,97.60
2023-02-06T01:32:22.001Z,97.70
2023-02-06T01:42:21.131Z,98.20
2023-02-06T01:52:20.153Z,98.50
2023-02-06T02:02:20.560Z,98.70
2023-02-06T02:12:19.181Z,98.80
2023-02-06T02:22:18.285Z,98.70
2023-02-06T02:32:17.266Z,98.70
2023-02-06T02:42:16.732Z,98.70
2023-02-06T02:52:17.086Z,99.10
2023-02-06T03:02:16.370Z,99.20
2023-02-06T03:12:15.294Z,99.00
2023-02-06T03:22:14.366Z,98.80
2023-02-06T03:32:13.403Z,98.90
2023-02-06T03:42:12.196Z,99.00
2023-02-06T03:52:11.287Z,99.00
2023-02-06T04:02:10.219Z,98.80
2023-02-06T04:12:09.233Z,98.70
2023-02-06T04:22:11.308Z,98.80
2023-02-06T04:32:10.337Z,98.90
2023-02-06T04:42:09.398Z,99.00
2023-02-06T04:52:08.251Z,99.00
2023-02-06T05:02:07.265Z,99.10
2023-02-06T05:12:06.317Z,98.90
2023-02-06T05:22:05.384Z,99.00
2023-02-06T05:32:04.473Z,99.10
2023-02-06T05:42:03.255Z,99.20
2023-02-06T05:52:02.247Z,99.20
2023-02-06T06:02:01.349Z,99.10
2023-02-06T06:12:00.409Z,99.50
2023-02-06T06:21:59.263Z,99.40
2023-02-06T06:31:58.319Z,99.40
2023-02-06T06:41:57.341Z,99.80
2023-02-06T06:51:56.280Z,99.80
2023-02-06T07:01:55.436Z,99.70
2023-02-06T07:11:54.483Z,99.80
2023-02-06T07:21:53.307Z,99.90
2023-02-06T07:31:52.411Z,99.90
2023-02-06T07:41:52.829Z,99.90
2023-02-06T07:51:52.512Z,99.90
2023-02-06T08:01:51.423Z,99.60
2023-02-06T08:11:50.409Z,99.60
2023-02-06T08:21:49.571Z,99.70
2023-02-06T08:31:48.522Z,99.30
2023-02-06T08:41:47.336Z,99.60
2023-02-06T08:51:46.345Z,99.20
2023-02-06T09:01:45.940Z,99.10
2023-02-06T09:11:45.515Z,98.90
2023-02-06T09:21:44.575Z,99.00
2023-02-06T09:31:43.442Z,98.90
2023-02-06T09:41:42.565Z,98.90
2023-02-06T09:51:41.479Z,98.90
2023-02-06T10:01:40.516Z,98.50
2023-02-06T10:11:39.470Z,98.00
2023-02-06T10:21:38.455Z,98.30
2023-02-06T10:31:37.438Z,97.60
2023-02-06T10:41:36.388Z,96.70
2023-02-06T10:51:35.557Z,96.50
2023-02-06T11:01:34.625Z,96.60
2023-02-06T11:11:33.667Z,95.20
2023-02-06T11:21:32.541Z,94.60
2023-02-06T11:31:31.581Z,94.50
2023-02-06T11:41:30.591Z,93.60
2023-02-06T11:51:29.415Z,93.80
2023-02-06T12:01:28.420Z,93.90
2023-02-06T12:11:27.425Z,94.20
2023-02-06T12:21:27.074Z,92.50
2023-02-06T12:31:26.671Z,91.80
2023-02-06T12:41:25.469Z,91.80
2023-02-06T12:51:24.523Z,90.90
2023-02-06T13:01:30.688Z,91.70
2023-02-06T13:11:24.680Z,91.30
2023-02-06T13:21:23.867Z,91.00
2023-02-06T13:31:22.980Z,91.20
2023-02-06T13:41:21.464Z,91.50
2023-02-06T13:51:20.660Z,91.60
2023-02-06T14:01:20.221Z,92.00
2023-02-06T14:11:37.677Z,91.90
2023-02-06T14:21:37.101Z,91.90
2023-02-06T14:31:36.721Z,92.10
2023-02-06T14:41:37.321Z,92.30
2023-02-06T14:51:36.618Z,92.10
2023-02-06T15:01:35.739Z,92.30
2023-02-06T15:11:34.521Z,92.70
2023-02-06T15:21:33.568Z,93.20
2023-02-06T15:31:32.667Z,93.70
2023-02-06T15:41:31.662Z,93.90
2023-02-06T15:51:30.726Z,94.30
2023-02-06T16:01:30.415Z,94.60
2023-02-06T16:11:48.722Z,94.80
2023-02-06T16:21:48.852Z,95.00
2023-02-06T16:31:47.693Z,95.00
2023-02-06T16:41:46.605Z,95.00
2023-02-06T16:51:45.657Z,95.20
2023-02-06T17:01:44.629Z,95.40
2023-02-06T17:11:43.759Z,95.50
2023-02-06T17:21:42.601Z,95.50
2023-02-06T17:31:41.685Z,95.40
2023-02-06T17:41:40.932Z,95.50
2023-02-06T17:51:39.774Z,95.70
2023-02-06T18:01:38.988Z,95.80
2023-02-06T18:11:37.743Z,95.90
2023-02-06T18:21:36.674Z,95.90
2023-02-06T18:31:35.819Z,95.10
2023-02-06T18:41:52.821Z,94.80
2023-02-06T18:51:51.626Z,94.10
2023-02-06T19:01:53.274Z,94.00
2023-02-06T19:11:52.789Z,94.00
2023-02-06T19:21:51.839Z,93.90
2023-02-06T19:31:50.716Z,93.80
2023-02-06T19:41:49.734Z,93.80
2023-02-06T19:51:48.952Z,93.60
2023-02-06T20:01:47.852Z,93.50
2023-02-06T20:11:47.990Z,93.30
2023-02-06T20:21:46.790Z,93.20
2023-02-06T20:31:45.843Z,93.20
2023-02-06T20:41:45.596Z,93.10
2023-02-06T20:51:44.696Z,93.20
2023-02-06T21:01:43.781Z,93.30
2023-02-06T21:11:43.890Z,93.40
2023-02-06T21:21:44.979Z,93.90
2023-02-06T21:31:43.888Z,94.10
2023-02-06T21:41:42.790Z,94.30
2023-02-06T21:51:41.754Z,94.40
2023-02-06T22:01:41.218Z,94.30
2023-02-06T22:11:40.859Z,94.10
2023-02-06T22:21:39.802Z,94.10
2023-02-06T22:31:42.604Z,94.30
2023-02-06T22:41:41.813Z,94.30
2023-02-06T22:51:40.808Z,94.20
2023-02-06T23:01:39.758Z,94.10
2023-02-06T23:11:38.916Z,94.00
2023-02-06T23:21:37.941Z,94.10
2023-02-06T23:31:36.949Z,94.30
2023-02-06T23:41:35.853Z,94.20
2023-02-06T23:51:35.588Z,94.20
